RYR67ZT EGSS-EPMO
Flight info
| Callsign | RYR67ZT |
|---|---|
| Flight time | N/A |
| Altitude | 39000 |
| Route | CLN P44 RATLO M197 REDFA L620 TACHA DCT RKN L980 HLZ DCT SUBIX DCT OBOKU DCT DOSIX |
| Aircraft | B38M/M-SADE3FGILRWY/SB1 |
Departure
| Time | 2026-05-04 20:46 |
|---|---|
| Airport | London Stansted Airport (EGSS) |
Arrival
| Time | N/A |
|---|---|
| Airport | Warsaw Modlin Airport (EPMO) |
| Time | Latitude | Longitude | Altitude | Speed | Heading |
|---|---|---|---|---|---|
| 2026-05-04 19:26 | 51.89076 | 0.25608 | 356 ft | 0 kts | 46° |
| 2026-05-04 20:28 | 51.89077 | 0.25606 | 358 ft | 4 kts | 14° |
| 2026-05-04 20:28 | 51.89069 | 0.25604 | 355 ft | 4 kts | 16° |
| 2026-05-04 20:28 | 51.89048 | 0.25594 | 351 ft | 4 kts | 5° |
| 2026-05-04 20:29 | 51.89023 | 0.25600 | 358 ft | 4 kts | 327° |
| 2026-05-04 20:29 | 51.89014 | 0.25613 | 351 ft | 1 kts | 313° |
| 2026-05-04 20:32 | 51.89014 | 0.25612 | 355 ft | 0 kts | 313° |
| 2026-05-04 20:33 | 51.89015 | 0.25610 | 351 ft | 1 kts | 312° |
| 2026-05-04 20:33 | 51.89027 | 0.25589 | 354 ft | 5 kts | 312° |
| 2026-05-04 20:33 | 51.89058 | 0.25534 | 358 ft | 8 kts | 313° |
| 2026-05-04 20:34 | 51.89103 | 0.25456 | 356 ft | 10 kts | 313° |
| 2026-05-04 20:34 | 51.89157 | 0.25360 | 351 ft | 13 kts | 310° |
| 2026-05-04 20:34 | 51.89170 | 0.25296 | 354 ft | 0 kts | 275° |
| 2026-05-04 20:35 | 51.89170 | 0.25295 | 351 ft | 0 kts | 273° |
| 2026-05-04 20:35 | 51.89170 | 0.25294 | 353 ft | 0 kts | 262° |
| 2026-05-04 20:35 | 51.89169 | 0.25291 | 353 ft | 1 kts | 249° |
| 2026-05-04 20:35 | 51.89150 | 0.25238 | 351 ft | 10 kts | 230° |
| 2026-05-04 20:36 | 51.89077 | 0.25123 | 352 ft | 19 kts | 224° |
| 2026-05-04 20:36 | 51.88956 | 0.24945 | 355 ft | 26 kts | 222° |
| 2026-05-04 20:36 | 51.88818 | 0.24741 | 358 ft | 28 kts | 222° |
| 2026-05-04 20:36 | 51.88681 | 0.24539 | 354 ft | 24 kts | 222° |
| 2026-05-04 20:37 | 51.88568 | 0.24372 | 357 ft | 17 kts | 222° |
| 2026-05-04 20:37 | 51.88523 | 0.24305 | 353 ft | 1 kts | 222° |
| 2026-05-04 20:37 | 51.88512 | 0.24289 | 355 ft | 3 kts | 222° |
| 2026-05-04 20:37 | 51.88489 | 0.24255 | 351 ft | 6 kts | 222° |
| 2026-05-04 20:38 | 51.88453 | 0.24206 | 358 ft | 8 kts | 220° |
| 2026-05-04 20:38 | 51.88409 | 0.24139 | 357 ft | 10 kts | 224° |
| 2026-05-04 20:38 | 51.88378 | 0.24088 | 351 ft | 0 kts | 225° |
| 2026-05-04 20:38 | 51.88363 | 0.24063 | 358 ft | 6 kts | 225° |
| 2026-05-04 20:39 | 51.88313 | 0.23987 | 357 ft | 14 kts | 223° |
| 2026-05-04 20:39 | 51.88217 | 0.23842 | 353 ft | 24 kts | 223° |
| 2026-05-04 20:39 | 51.88070 | 0.23620 | 351 ft | 33 kts | 223° |
| 2026-05-04 20:39 | 51.87900 | 0.23360 | 354 ft | 35 kts | 223° |
| 2026-05-04 20:40 | 51.87736 | 0.23113 | 351 ft | 26 kts | 227° |
| 2026-05-04 20:40 | 51.87680 | 0.22956 | 351 ft | 0 kts | 276° |
| 2026-05-04 20:40 | 51.87682 | 0.22952 | 359 ft | 0 kts | 302° |
| 2026-05-04 20:40 | 51.87709 | 0.22931 | 351 ft | 11 kts | 339° |
| 2026-05-04 20:41 | 51.87806 | 0.22898 | 352 ft | 18 kts | 338° |
| 2026-05-04 20:41 | 51.87857 | 0.22808 | 344 ft | 0 kts | 294° |
| 2026-05-04 20:44 | 51.87866 | 0.22784 | 339 ft | 5 kts | 308° |
| 2026-05-04 20:44 | 51.87917 | 0.22717 | 341 ft | 13 kts | 322° |
| 2026-05-04 20:44 | 51.87999 | 0.22681 | 348 ft | 8 kts | 34° |
| 2026-05-04 20:44 | 51.88031 | 0.22752 | 336 ft | 9 kts | 49° |
| 2026-05-04 20:45 | 51.88088 | 0.22837 | 339 ft | 25 kts | 44° |
| 2026-05-04 20:46 | 51.91353 | 0.27982 | 1948 ft | 165 kts | 60° |
| 2026-05-04 20:46 | 51.91674 | 0.29841 | 2428 ft | 183 kts | 90° |
| 2026-05-04 20:46 | 51.91385 | 0.31959 | 2822 ft | 207 kts | 112° |
| 2026-05-04 20:47 | 51.90777 | 0.34200 | 3292 ft | 227 kts | 113° |
| 2026-05-04 20:47 | 51.90102 | 0.36640 | 3775 ft | 248 kts | 113° |
| 2026-05-04 20:47 | 51.89367 | 0.39250 | 3902 ft | 259 kts | 114° |
| 2026-05-04 20:47 | 51.88600 | 0.41920 | 3952 ft | 264 kts | 114° |
| 2026-05-04 20:48 | 51.87829 | 0.44580 | 3981 ft | 265 kts | 114° |
| 2026-05-04 20:48 | 51.87029 | 0.47325 | 3990 ft | 265 kts | 114° |
| 2026-05-04 20:48 | 51.86252 | 0.49983 | 3988 ft | 265 kts | 115° |
| 2026-05-04 20:48 | 51.85450 | 0.52715 | 3991 ft | 266 kts | 114° |
| 2026-05-04 20:49 | 51.84948 | 0.55542 | 4372 ft | 265 kts | 93° |
| 2026-05-04 20:49 | 51.84950 | 0.58545 | 4830 ft | 269 kts | 89° |
| 2026-05-04 20:49 | 51.84973 | 0.61566 | 4936 ft | 269 kts | 89° |
| 2026-05-04 20:49 | 51.84987 | 0.64598 | 4986 ft | 269 kts | 89° |
| 2026-05-04 20:50 | 51.84991 | 0.67612 | 4994 ft | 269 kts | 89° |
| 2026-05-04 20:50 | 51.84992 | 0.70638 | 4997 ft | 270 kts | 89° |
| 2026-05-04 20:50 | 51.85034 | 0.73660 | 4984 ft | 269 kts | 82° |
| 2026-05-04 20:50 | 51.85441 | 0.76603 | 5005 ft | 268 kts | 75° |
| 2026-05-04 20:51 | 51.85917 | 0.79517 | 5003 ft | 268 kts | 75° |
| 2026-05-04 20:51 | 51.86382 | 0.82442 | 4999 ft | 268 kts | 75° |
| 2026-05-04 20:51 | 51.86839 | 0.85362 | 4997 ft | 268 kts | 75° |
| 2026-05-04 20:51 | 51.87289 | 0.88296 | 4999 ft | 268 kts | 76° |
| 2026-05-04 20:52 | 51.87733 | 0.91224 | 5002 ft | 268 kts | 76° |
| 2026-05-04 20:52 | 51.88175 | 0.94138 | 5164 ft | 267 kts | 76° |
| 2026-05-04 20:52 | 51.88620 | 0.97078 | 5549 ft | 270 kts | 76° |
| 2026-05-04 20:52 | 51.89068 | 1.00042 | 5925 ft | 272 kts | 76° |
| 2026-05-04 20:53 | 51.89518 | 1.03022 | 6302 ft | 275 kts | 76° |
| 2026-05-04 20:53 | 51.89987 | 1.06029 | 7053 ft | 275 kts | 75° |
| 2026-05-04 20:53 | 51.90483 | 1.09040 | 7851 ft | 280 kts | 76° |
| 2026-05-04 20:53 | 51.90925 | 1.12140 | 8622 ft | 284 kts | 77° |
| 2026-05-04 20:54 | 51.91377 | 1.15276 | 9394 ft | 288 kts | 76° |
| 2026-05-04 20:54 | 51.91842 | 1.18451 | 10147 ft | 292 kts | 76° |
| 2026-05-04 20:54 | 51.92326 | 1.21728 | 10615 ft | 309 kts | 76° |
| 2026-05-04 20:54 | 51.92840 | 1.25202 | 11070 ft | 323 kts | 76° |
| 2026-05-04 20:55 | 51.93192 | 1.27578 | 11449 ft | 329 kts | 76° |